Weather Underground® Station Historical Data


Station Historical Data For Bruceton, TN. (K3JAE's Weather Station - KTNBRUCE2)
Daily Summary for:  January 4, 2018 Units:  Metric    English   Both
« Previous Day
Next Day »
Daily Weekly Monthly Yearly Custom
  High: Low: Average:
Temperature: -4.1 °C -11.8 °C -8 °C
Dew Point: -10.8 °C -15.8 °C -14.1 °C
Humidity: 76% 44% 63%
Wind Speed: 18.5km/h 0km/h 6.3km/h
Wind Gust: 20.9km/h - -
Wind- - West
Pressure: 1030.4 hPa 1024.6 hPa -
Precipitation: 0 mm    
Historical Graphs
 
 
Tabular Data for:  January 4, 2018
Time Temperature Dew Point Pressure Wind Wind Speed Wind Gust Humidity Rainfall Rate (Hourly) solar Conditions
00:01 -7.4 °C -11.1 °C 1024.6 hPa NW 3.7 km/h 3.7 km/h 75% 0 mm 0.0 W/m2 CLR
00:03 -7.4 °C -11.1 °C 1024.6 hPa NW 3.7 km/h 3.7 km/h 75% 0 mm 0.0 W/m2 CLR
00:08 -7.5 °C -11 °C 1024.6 hPa NW 1.9 km/h 1.9 km/h 76% 0 mm 0.0 W/m2 CLR
00:12 -7.6 °C -11.1 °C 1024.6 hPa NW 3.7 km/h 3.7 km/h 76% 0 mm 0.0 W/m2 CLR
00:15 -7.6 °C -11.1 °C 1024.6 hPa NW 3.7 km/h 3.7 km/h 76% 0 mm 0.0 W/m2 CLR
00:17 -7.6 °C -11.1 °C 1024.6 hPa NW 3.7 km/h 3.7 km/h 76% 0 mm 0.0 W/m2 CLR
00:21 -7.6 °C -11.1 °C 1024.6 hPa NW 5.6 km/h 5.6 km/h 76% 0 mm 0.0 W/m2 CLR
00:22 -7.6 °C -11.1 °C 1024.6 hPa NW 5.6 km/h 5.6 km/h 76% 0 mm 0.0 W/m2 CLR
00:26 -7.4 °C -10.9 °C 1024.6 hPa NW 5.6 km/h 5.6 km/h 76% 0 mm 0.0 W/m2 CLR
00:27 -7.4 °C -10.9 °C 1024.6 hPa NW 5.6 km/h 5.6 km/h 76% 0 mm 0.0 W/m2 CLR
00:28 -7.4 °C -10.9 °C 1024.6 hPa NW 3.7 km/h 3.7 km/h 76% 0 mm 0.0 W/m2 CLR
00:31 -7.3 °C -10.8 °C 1024.6 hPa NW 5.6 km/h 5.6 km/h 76% 0 mm 0.0 W/m2 CLR
00:35 -7.3 °C -10.8 °C 1024.6 hPa NW 6.4 km/h 6.4 km/h 76% 0 mm 0.0 W/m2 CLR
00:36 -7.3 °C -10.9 °C 1024.6 hPa NW 5.6 km/h 5.6 km/h 75% 0 mm 0.0 W/m2 CLR
00:41 -7.2 °C -10.9 °C 1024.6 hPa NW 5.6 km/h 5.6 km/h 75% 0 mm 0.0 W/m2 CLR
00:46 -7.2 °C -10.8 °C 1024.6 hPa NW 3.7 km/h 3.7 km/h 75% 0 mm 0.0 W/m2 CLR
00:47 -7.2 °C -10.8 °C 1024.6 hPa NW 5.6 km/h 5.6 km/h 75% 0 mm 0.0 W/m2 CLR
00:52 -7.2 °C -10.8 °C 1024.6 hPa NW 5.6 km/h 5.6 km/h 75% 0 mm 0.0 W/m2 CLR
00:55 -7.2 °C -10.9 °C 1024.6 hPa NW 6.4 km/h 6.4 km/h 75% 0 mm 0.0 W/m2 CLR
00:57 -7.2 °C -10.9 °C 1024.6 hPa NW 7.4 km/h 7.4 km/h 75% 0 mm 0.0 W/m2 CLR
01:02 -7.2 °C -10.8 °C 1024.9 hPa NW 5.6 km/h 5.6 km/h 75% 0 mm 0.0 W/m2 CLR
01:04 -7.2 °C -11 °C 1024.6 hPa NW 5.6 km/h 5.6 km/h 74% 0 mm 0.0 W/m2 CLR
01:07 -7.2 °C -11 °C 1024.6 hPa NW 7.4 km/h 7.4 km/h 74% 0 mm 0.0 W/m2 CLR
01:10 -7.2 °C -11 °C 1024.6 hPa NNW 5.6 km/h 5.6 km/h 74% 0 mm 0.0 W/m2 CLR
01:15 -7.1 °C -11.1 °C 1024.6 hPa NE 13 km/h 13 km/h 73% 0 mm 0.0 W/m2 CLR
01:19 -7.1 °C -11.1 °C 1024.6 hPa NW 7.4 km/h 7.4 km/h 73% 0 mm 0.0 W/m2 CLR
01:21 -7.1 °C -11.3 °C 1024.9 hPa NW 5.6 km/h 5.6 km/h 72% 0 mm 0.0 W/m2 CLR
01:26 -7.1 °C -11.3 °C 1024.9 hPa NW 11.1 km/h 11.1 km/h 72% 0 mm 0.0 W/m2 CLR
01:31 -7.1 °C -11.5 °C 1024.9 hPa NW 9.3 km/h 9.3 km/h 71% 0 mm 0.0 W/m2 CLR
01:32 -7.1 °C -11.5 °C 1024.9 hPa NW 9.3 km/h 9.3 km/h 71% 0 mm 0.0 W/m2 CLR
01:35 -7.2 °C -11.6 °C 1024.9 hPa NW 7.4 km/h 7.4 km/h 71% 0 mm 0.0 W/m2 CLR
01:37 -7.2 °C -11.3 °C 1024.9 hPa NW 14.8 km/h 14.8 km/h 72% 0 mm 0.0 W/m2 CLR
01:39 -7.2 °C -11.6 °C 1024.9 hPa NW 5.6 km/h 5.6 km/h 71% 0 mm 0.0 W/m2 CLR
01:42 -7.2 °C -11.6 °C 1025.3 hPa NW 9.3 km/h 10.3 km/h 71% 0 mm 0.0 W/m2 CLR
01:44 -7.2 °C -11.8 °C 1025.3 hPa NW 16.7 km/h 16.7 km/h 70% 0 mm 0.0 W/m2 CLR
01:48 -7.2 °C -11.8 °C 1025.3 hPa NW 13 km/h 13 km/h 70% 0 mm 0.0 W/m2 CLR
01:51 -7.2 °C -11.9 °C 1025.3 hPa NW 16.7 km/h 16.7 km/h 69% 0 mm 0.0 W/m2 CLR
01:55 -7.2 °C -11.9 °C 1025.3 hPa NNW 4.8 km/h 20.9 km/h 69% 0 mm 0.0 W/m2 CLR
01:57 -7.2 °C -12.1 °C 1025.3 hPa NW 18.5 km/h 18.5 km/h 68% 0 mm 0.0 W/m2 CLR
02:02 -7.3 °C -12.2 °C 1025.3 hPa NW 8 km/h 8 km/h 68% 0 mm 0.0 W/m2 CLR
02:04 -7.3 °C -12 °C 1025.3 hPa NNW 7.4 km/h 7.4 km/h 69% 0 mm 0.0 W/m2 CLR
02:07 -7.3 °C -12.2 °C 1025.3 hPa NW 5.6 km/h 5.6 km/h 68% 0 mm 0.0 W/m2 CLR
02:09 -7.3 °C -12.1 °C 1025.3 hPa NW 5.6 km/h 5.6 km/h 69% 0 mm 0.0 W/m2 CLR
02:13 -7.4 °C -12.2 °C 1025.3 hPa NNE 5.6 km/h 5.6 km/h 69% 0 mm 0.0 W/m2 CLR
02:15 -7.4 °C -12.3 °C 1025.3 hPa NNE 5.6 km/h 5.6 km/h 68% 0 mm 0.0 W/m2 CLR
02:18 -7.5 °C -12.4 °C 1025.3 hPa North 5.6 km/h 5.6 km/h 68% 0 mm 0.0 W/m2 CLR
02:22 -7.6 °C -12.5 °C 1025.3 hPa North 9.7 km/h 9.7 km/h 68% 0 mm 0.0 W/m2 CLR
02:27 -7.6 °C -12.7 °C 1025.3 hPa NW 16.7 km/h 16.7 km/h 67% 0 mm 0.0 W/m2 CLR
02:28 -7.6 °C -12.7 °C 1025.3 hPa WNW 11.1 km/h 11.1 km/h 67% 0 mm 0.0 W/m2 CLR
02:29 -7.6 °C -12.7 °C 1025.3 hPa NW 7.4 km/h 7.4 km/h 67% 0 mm 0.0 W/m2 CLR
02:30 -7.7 °C -12.7 °C 1025.3 hPa NNW 11.1 km/h 11.1 km/h 67% 0 mm 0.0 W/m2 CLR
02:35 -7.7 °C -13 °C 1025.3 hPa NW 9.7 km/h 9.7 km/h 66% 0 mm 0.0 W/m2 CLR
02:36 -7.7 °C -13 °C 1025.3 hPa NW 16.7 km/h 16.7 km/h 66% 0 mm 0.0 W/m2 CLR
02:41 -7.8 °C -13.1 °C 1025.3 hPa North 13 km/h 13 km/h 66% 0 mm 0.0 W/m2 CLR
02:44 -7.8 °C -13.1 °C 1025.6 hPa NNE 13 km/h 13 km/h 66% 0 mm 0.0 W/m2 CLR
02:49 -7.9 °C -13.1 °C 1025.6 hPa NW 13 km/h 13 km/h 66% 0 mm 0.0 W/m2 CLR
02:50 -7.9 °C -13.2 °C 1025.6 hPa NNW 9.7 km/h 9.7 km/h 66% 0 mm 0.0 W/m2 CLR
02:51 -8 °C -13.2 °C 1025.6 hPa NNW 13 km/h 13 km/h 66% 0 mm 0.0 W/m2 CLR
02:52 -8 °C -13.2 °C 1025.6 hPa NW 12.9 km/h 12.9 km/h 66% 0 mm 0.0 W/m2 CLR
02:57 -8.1 °C -13.3 °C 1025.6 hPa WNW 5.6 km/h 5.6 km/h 66% 0 mm 0.0 W/m2 CLR
02:58 -8.1 °C -13.3 °C 1025.6 hPa WNW 5.6 km/h 5.6 km/h 66% 0 mm 0.0 W/m2 CLR
02:59 -8.1 °C -13.2 °C 1025.6 hPa WNW 5.6 km/h 5.6 km/h 67% 0 mm 0.0 W/m2 CLR
03:04 -8.2 °C -13.2 °C 1025.6 hPa NW 5.6 km/h 5.6 km/h 67% 0 mm 0.0 W/m2 CLR
03:06 -8.2 °C -13.3 °C 1025.6 hPa North 7.4 km/h 7.4 km/h 67% 0 mm 0.0 W/m2 CLR
03:09 -8.3 °C -13.4 °C 1025.6 hPa NNW 9.3 km/h 9.3 km/h 67% 0 mm 0.0 W/m2 CLR
03:14 -8.4 °C -13.4 °C 1025.6 hPa NW 14.8 km/h 14.8 km/h 67% 0 mm 0.0 W/m2 CLR
03:19 -8.5 °C -13.6 °C 1025.6 hPa NW 11.1 km/h 11.1 km/h 67% 0 mm 0.0 W/m2 CLR
03:23 -8.6 °C -13.4 °C 1025.6 hPa NW 5.6 km/h 5.6 km/h 68% 0 mm 0.0 W/m2 CLR
03:25 -8.6 °C -13.4 °C 1025.6 hPa NW 8 km/h 8 km/h 68% 0 mm 0.0 W/m2 CLR
03:30 -8.7 °C -13.6 °C 1025.6 hPa NW 11.3 km/h 11.3 km/h 68% 0 mm 0.0 W/m2 CLR
03:32 -8.7 °C -13.6 °C 1025.6 hPa NW 13 km/h 13 km/h 68% 0 mm 0.0 W/m2 CLR
03:34 -8.8 °C -13.6 °C 1025.6 hPa NW 13 km/h 13 km/h 68% 0 mm 0.0 W/m2 CLR
03:39 -8.9 °C -13.7 °C 1025.6 hPa NW 14.8 km/h 14.8 km/h 68% 0 mm 0.0 W/m2 CLR
03:41 -8.9 °C -13.7 °C 1025.6 hPa NW 5.6 km/h 5.6 km/h 68% 0 mm 0.0 W/m2 CLR
03:42 -8.9 °C -13.8 °C 1025.6 hPa WNW 7.4 km/h 7.4 km/h 68% 0 mm 0.0 W/m2 CLR
03:47 -9 °C -13.8 °C 1025.3 hPa NNW 5.6 km/h 5.6 km/h 68% 0 mm 0.0 W/m2 CLR
03:48 -9 °C -13.7 °C 1025.3 hPa NNW 6.4 km/h 6.4 km/h 69% 0 mm 0.0 W/m2 CLR
03:51 -9.1 °C -13.9 °C 1025.6 hPa NW 11.1 km/h 11.1 km/h 68% 0 mm 0.0 W/m2 CLR
03:56 -9.1 °C -13.8 °C 1025.6 hPa NNW 5.6 km/h 5.6 km/h 69% 0 mm 0.0 W/m2 CLR
03:57 -9.2 °C -13.8 °C 1025.3 hPa NNW 7.4 km/h 7.4 km/h 69% 0 mm 0.0 W/m2 CLR
03:58 -9.2 °C -13.8 °C 1025.6 hPa NNW 7.4 km/h 7.4 km/h 69% 0 mm 0.0 W/m2 CLR
04:03 -9.2 °C -13.9 °C 1025.3 hPa NW 13 km/h 13 km/h 69% 0 mm 0.0 W/m2 CLR
04:05 -9.2 °C -13.9 °C 1025.6 hPa NW 5.6 km/h 5.6 km/h 69% 0 mm 0.0 W/m2 CLR
04:10 -9.3 °C -13.9 °C 1025.6 hPa North 5.6 km/h 5.6 km/h 69% 0 mm 0.0 W/m2 CLR
04:11 -9.3 °C -14 °C 1025.3 hPa NW 7.4 km/h 7.4 km/h 69% 0 mm 0.0 W/m2 CLR
04:16 -9.4 °C -13.8 °C 1025.6 hPa North 11.1 km/h 11.1 km/h 70% 0 mm 0.0 W/m2 CLR
04:18 -9.4 °C -13.8 °C 1025.6 hPa NW 7.4 km/h 7.4 km/h 70% 0 mm 0.0 W/m2 CLR
04:19 -9.4 °C -13.8 °C 1025.6 hPa North 7.4 km/h 7.4 km/h 70% 0 mm 0.0 W/m2 CLR
04:24 -9.4 °C -13.9 °C 1025.6 hPa North 4.8 km/h 4.8 km/h 70% 0 mm 0.0 W/m2 CLR
04:26 -9.5 °C -13.9 °C 1025.6 hPa North 5.6 km/h 5.6 km/h 70% 0 mm 0.0 W/m2 CLR
04:31 -9.6 °C -14 °C 1025.6 hPa North 9.3 km/h 9.3 km/h 70% 0 mm 0.0 W/m2 CLR
04:32 -9.6 °C -14.1 °C 1026 hPa North 5.6 km/h 5.6 km/h 70% 0 mm 0.0 W/m2 CLR
04:33 -9.6 °C -13.9 °C 1025.6 hPa NNW 5.6 km/h 5.6 km/h 71% 0 mm 0.0 W/m2 CLR
04:38 -9.7 °C -13.9 °C 1026 hPa NW 5.6 km/h 5.6 km/h 71% 0 mm 0.0 W/m2 CLR
04:41 -9.7 °C -13.9 °C 1026 hPa NW 5.6 km/h 5.6 km/h 71% 0 mm 0.0 W/m2 CLR
04:46 -9.8 °C -14.1 °C 1026 hPa NW 5.6 km/h 5.6 km/h 71% 0 mm 0.0 W/m2 CLR
04:48 -9.8 °C -14.1 °C 1026 hPa NW 5.6 km/h 5.6 km/h 71% 0 mm 0.0 W/m2 CLR
04:51 -9.9 °C -14 °C 1026.3 hPa NW 5.6 km/h 5.6 km/h 72% 0 mm 0.0 W/m2 CLR
04:56 -9.9 °C -14.1 °C 1026.3 hPa NW 8 km/h 8 km/h 72% 0 mm 0.0 W/m2 CLR
05:01 -10 °C -14.1 °C 1026.3 hPa WNW 5.6 km/h 5.6 km/h 72% 0 mm 0.0 W/m2 CLR
05:03 -10.1 °C -14.2 °C 1026.3 hPa WNW 3.7 km/h 3.7 km/h 72% 0 mm 0.0 W/m2 CLR
05:06 -10.1 °C -14.2 °C 1026.3 hPa WNW 5.6 km/h 5.6 km/h 72% 0 mm 0.0 W/m2 CLR
05:11 -10.2 °C -14.1 °C 1026.3 hPa WNW 5.6 km/h 5.6 km/h 73% 0 mm 0.0 W/m2 CLR
05:12 -10.2 °C -14.1 °C 1026.3 hPa NW 5.6 km/h 5.6 km/h 73% 0 mm 0.0 W/m2 CLR
05:16 -10.2 °C -14.2 °C 1026.3 hPa NW 5.6 km/h 5.6 km/h 73% 0 mm 0.0 W/m2 CLR
05:21 -10.3 °C -14.2 °C 1026.3 hPa NW 5.6 km/h 5.6 km/h 73% 0 mm 0.0 W/m2 CLR
05:22 -10.3 °C -14.2 °C 1026.6 hPa NW 5.6 km/h 5.6 km/h 73% 0 mm 0.0 W/m2 CLR
05:25 -10.4 °C -14.3 °C 1026.6 hPa NW 5.6 km/h 5.6 km/h 73% 0 mm 0.0 W/m2 CLR
05:27 -10.4 °C -14.3 °C 1026.6 hPa NW 13 km/h 13 km/h 73% 0 mm 0.0 W/m2 CLR
05:33 -10.4 °C -14.2 °C 1026.6 hPa North 7.4 km/h 7.4 km/h 74% 0 mm 0.0 W/m2 CLR
05:36 -10.4 °C -14.2 °C 1026.6 hPa NW 5.6 km/h 5.6 km/h 74% 0 mm 0.0 W/m2 CLR
05:40 -10.5 °C -14.2 °C 1027 hPa NW 5.6 km/h 5.6 km/h 74% 0 mm 0.0 W/m2 CLR
05:43 -10.5 °C -14.2 °C 1027 hPa NW 3.7 km/h 3.7 km/h 74% 0 mm 0.0 W/m2 CLR
05:46 -10.6 °C -14.3 °C 1027 hPa NW 3.7 km/h   74% 0 mm 0.0 W/m2 CLR
05:49 -10.6 °C -14.1 °C 1027 hPa NW 1.9 km/h 1.9 km/h 75% 0 mm 0.0 W/m2 CLR
05:51 -10.6 °C -14.2 °C 1027 hPa NW 5.6 km/h 5.6 km/h 75% 0 mm 0.0 W/m2 CLR
05:56 -10.7 °C -14.2 °C 1027 hPa NW 5.6 km/h 5.6 km/h 75% 0 mm 0.0 W/m2 CLR
05:57 -10.7 °C -14.3 °C 1027 hPa NW 5.6 km/h 5.6 km/h 75% 0 mm 0.0 W/m2 CLR
06:02 -10.8 °C -14.3 °C 1027.3 hPa NW 3.7 km/h 3.7 km/h 75% 0 mm 0.0 W/m2 CLR
06:05 -10.8 °C -14.4 °C 1027.3 hPa NNW 5.6 km/h 5.6 km/h 75% 0 mm 0.0 W/m2 CLR
06:10 -10.9 °C -14.5 °C 1027.3 hPa NW 3.7 km/h 3.7 km/h 75% 0 mm 0.0 W/m2 CLR
06:11 -10.9 °C -14.5 °C 1027.3 hPa NW 4.8 km/h 4.8 km/h 75% 0 mm 0.0 W/m2 CLR
06:17 -11.1 °C -14.6 °C 1027.3 hPa NW 6.4 km/h 6.4 km/h 75% 0 mm 0.0 W/m2 CLR
06:22 -11.1 °C -14.6 °C 1027.7 hPa North 7.4 km/h 7.4 km/h 75% 0 mm 0.0 W/m2 CLR
06:23 -11.1 °C -14.7 °C 1027.7 hPa North 7.4 km/h 7.4 km/h 75% 0 mm 0.0 W/m2 CLR
06:28 -11.1 °C -14.7 °C 1027.7 hPa NW 3.7 km/h 3.7 km/h 75% 0 mm 0.0 W/m2 CLR
06:29 -11.1 °C -14.7 °C 1027.7 hPa North 9.3 km/h 9.3 km/h 75% 0 mm 0.0 W/m2 CLR
06:34 -11.2 °C -14.9 °C 1027.7 hPa NNW 7.4 km/h 7.4 km/h 74% 0 mm 0.0 W/m2 CLR
06:35 -11.2 °C -14.9 °C 1027.7 hPa NNE 13 km/h 13 km/h 74% 0 mm 0.0 W/m2 CLR
06:40 -11.2 °C -14.9 °C 1027.7 hPa NW 7.4 km/h 7.4 km/h 74% 0 mm 0.0 W/m2 CLR
06:41 -11.2 °C -14.9 °C 1028 hPa NW 5.6 km/h 5.6 km/h 74% 0 mm 0.0 W/m2 CLR
06:46 -11.3 °C -15 °C 1028 hPa NNE 7.4 km/h 7.4 km/h 74% 0 mm 0.0 W/m2 CLR
06:49 -11.3 °C -15.1 °C 1028 hPa North 4.8 km/h 4.8 km/h 74% 0 mm 0.0 W/m2 CLR
06:50 -11.3 °C -15.1 °C 1028 hPa North 3.2 km/h 8 km/h 74% 0 mm 0.0 W/m2 CLR
06:52 -11.3 °C -15.1 °C 1028 hPa North 6.4 km/h 6.4 km/h 74% 0 mm 0.0 W/m2 CLR
06:55 -11.4 °C -15.1 °C 1028.3 hPa NNE 5.6 km/h 5.6 km/h 74% 0 mm 0.0 W/m2 CLR
06:56 -11.4 °C -15.1 °C 1028 hPa North 7.4 km/h 7.4 km/h 74% 0 mm 0.0 W/m2 CLR
06:58 -11.4 °C -15.1 °C 1028 hPa North 7.4 km/h 7.4 km/h 74% 0 mm 0.0 W/m2 CLR
07:03 -11.5 °C -15.2 °C 1028 hPa North 5.6 km/h 5.6 km/h 74% 0 mm 0.0 W/m2 CLR
07:05 -11.5 °C -15.4 °C 1028 hPa North 7.4 km/h 7.4 km/h 73% 0 mm 5.0 W/m2 CLR
07:06 -11.5 °C -15.4 °C 1028 hPa NNW 7.4 km/h 7.4 km/h 73% 0 mm 5.0 W/m2 CLR
07:11 -11.6 °C -15.4 °C 1028 hPa NW 5.6 km/h 5.6 km/h 73% 0 mm 7.0 W/m2 CLR
07:16 -11.6 °C -15.5 °C 1028.3 hPa NNW 6.4 km/h 6.4 km/h 73% 0 mm 9.0 W/m2 CLR
07:25 -11.7 °C -15.6 °C 1028.3 hPa NNW 5.6 km/h 5.6 km/h 73% 0 mm 12.0 W/m2 CLR
07:30 -11.7 °C -15.6 °C 1028.3 hPa NW 5.6 km/h 6.9 km/h 73% 0 mm 14.0 W/m2 CLR
07:31 -11.7 °C -15.6 °C 1028.3 hPa NW 8 km/h 8 km/h 73% 0 mm 14.0 W/m2 CLR
07:34 -11.8 °C -15.7 °C 1028.3 hPa North 5.6 km/h 5.6 km/h 73% 0 mm 16.0 W/m2 CLR
07:39 -11.8 °C -15.5 °C 1028.3 hPa NW 6.4 km/h 6.4 km/h 74% 0 mm 23.0 W/m2 CLR
07:41 -11.8 °C -15.6 °C 1028.3 hPa NW 5.6 km/h 5.6 km/h 74% 0 mm 25.0 W/m2 CLR
07:44 -11.8 °C -15.6 °C 1028.3 hPa NW 9.7 km/h 9.7 km/h 74% 0 mm 25.0 W/m2 CLR
07:45 -11.8 °C -15.6 °C 1028.3 hPa NW 9.3 km/h 9.3 km/h 74% 0 mm 26.0 W/m2 CLR
07:48 -11.8 °C -15.5 °C 1028.7 hPa NW 5.6 km/h 5.6 km/h 74% 0 mm 28.0 W/m2 CLR
07:51 -11.8 °C -15.5 °C 1028.7 hPa NW 7.4 km/h 7.4 km/h 74% 0 mm 30.0 W/m2 CLR
07:56 -11.7 °C -15.4 °C 1028.7 hPa NW 7.4 km/h 7.4 km/h 74% 0 mm 37.0 W/m2 CLR
07:57 -11.7 °C -15.4 °C 1028.7 hPa NNE 5.6 km/h 5.6 km/h 74% 0 mm 39.0 W/m2 CLR
08:02 -11.6 °C -15.3 °C 1028.7 hPa NW 7.4 km/h 7.4 km/h 74% 0 mm 44.0 W/m2 CLR
08:07 -11.5 °C -15.2 °C 1028.7 hPa NW 5.6 km/h 5.6 km/h 74% 0 mm 39.0 W/m2 CLR
08:12 -11.4 °C -15.2 °C 1028.7 hPa NW 11.1 km/h 11.1 km/h 74% 0 mm 46.0 W/m2 CLR
08:13 -11.4 °C -15.3 °C 1028.7 hPa NNW 13 km/h 13 km/h 73% 0 mm 65.0 W/m2 CLR
08:16 -11.4 °C -15.1 °C 1029 hPa NW 5.6 km/h 5.6 km/h 74% 0 mm 56.0 W/m2 CLR
08:18 -11.4 °C -15.1 °C 1029 hPa NW 14.8 km/h 14.8 km/h 74% 0 mm 60.0 W/m2 CLR
08:21 -11.3 °C -15.2 °C 1029 hPa NW 5.6 km/h 5.6 km/h 73% 0 mm 56.0 W/m2 CLR
08:24 -11.3 °C -15.2 °C 1029 hPa North 7.4 km/h 7.4 km/h 73% 0 mm 63.0 W/m2 CLR
08:29 -11.2 °C -15.1 °C 1029 hPa NNW 7.4 km/h 7.4 km/h 73% 0 mm 60.0 W/m2 CLR
08:30 -11.2 °C -15.1 °C 1029 hPa NW 18.5 km/h 18.5 km/h 73% 0 mm 91.0 W/m2 CLR
08:35 -11.2 °C -15.1 °C 1029 hPa North 5.6 km/h 5.6 km/h 73% 0 mm 123.0 W/m2 CLR
08:36 -11.2 °C -15.1 °C 1029 hPa NW 6.4 km/h 6.4 km/h 73% 0 mm 139.0 W/m2 CLR
08:42 -11 °C -14.9 °C 1029 hPa NW 13 km/h 13 km/h 73% 0 mm 137.0 W/m2 CLR
08:47 -10.8 °C -14.7 °C 1029.3 hPa NW 7.4 km/h 7.4 km/h 73% 0 mm 171.0 W/m2 CLR
08:48 -10.8 °C -14.7 °C 1029.3 hPa NNW 7.4 km/h 7.4 km/h 73% 0 mm 155.0 W/m2 CLR
08:50 -10.8 °C -14.8 °C 1029.3 hPa NNW 7.4 km/h 7.4 km/h 72% 0 mm 72.0 W/m2 CLR
08:56 -10.7 °C -14.7 °C 1029.7 hPa NW 9.7 km/h 9.7 km/h 72% 0 mm 174.0 W/m2 CLR
09:00 -10.7 °C -14.9 °C 1029.7 hPa West 13 km/h 13 km/h 71% 0 mm 146.0 W/m2 CLR
09:02 -10.6 °C -14.8 °C 1029.7 hPa WNW 11.1 km/h 11.1 km/h 71% 0 mm 69.0 W/m2 CLR
09:07 -10.4 °C -14.7 °C 1029.7 hPa WNW 18.5 km/h 18.5 km/h 71% 0 mm 72.0 W/m2 CLR
09:08 -10.5 °C -14.9 °C 1029.7 hPa NNW 18.5 km/h 18.5 km/h 70% 0 mm 123.0 W/m2 CLR
09:13 -10.4 °C -14.9 °C 1029.7 hPa NW 13 km/h 13 km/h 70% 0 mm 229.0 W/m2 CLR
09:18 -10.3 °C -14.9 °C 1030 hPa NW 11.1 km/h 11.1 km/h 69% 0 mm 190.0 W/m2 CLR
09:20 -10.3 °C -14.9 °C 1029.7 hPa WNW 7.4 km/h 7.4 km/h 69% 0 mm 127.0 W/m2 CLR
09:21 -10.3 °C -14.9 °C 1029.7 hPa North 9.7 km/h 9.7 km/h 69% 0 mm 74.0 W/m2 CLR
09:26 -10.2 °C -14.6 °C 1029.7 hPa WNW 13 km/h 13 km/h 70% 0 mm 160.0 W/m2 CLR
09:27 -10.1 °C -14.6 °C 1029.7 hPa WNW 11.1 km/h 11.1 km/h 70% 0 mm 232.0 W/m2 CLR
09:32 -10 °C -14.6 °C 1030 hPa NW 16.7 km/h 16.7 km/h 69% 0 mm 186.0 W/m2 CLR
09:35 -9.9 °C -14.7 °C 1030 hPa WNW 7.4 km/h 7.4 km/h 68% 0 mm 257.0 W/m2 CLR
09:42 -9.8 °C -14.6 °C 1030 hPa NW 16.7 km/h 16.7 km/h 68% 0 mm 146.0 W/m2 CLR
09:45 -9.8 °C -14.8 °C 1030 hPa NW 9.3 km/h 9.3 km/h 67% 0 mm 244.0 W/m2 CLR
09:50 -9.7 °C -14.4 °C 1030 hPa NW 12.9 km/h 12.9 km/h 68% 0 mm 274.0 W/m2 CLR
09:51 -9.6 °C -14.4 °C 1030 hPa NNE 13 km/h 13 km/h 68% 0 mm 227.0 W/m2 CLR
09:56 -9.4 °C -14.4 °C 1030 hPa NNW 6.4 km/h 6.4 km/h 67% 0 mm 84.0 W/m2 CLR
10:01 -9.3 °C -14.4 °C 1030 hPa NW 13 km/h 13 km/h 66% 0 mm 253.0 W/m2 CLR
10:03 -9.2 °C -14.3 °C 1030 hPa NW 5.6 km/h 5.6 km/h 66% 0 mm 285.0 W/m2 CLR
10:08 -8.9 °C -14.2 °C 1030 hPa NW 13 km/h 13 km/h 66% 0 mm 271.0 W/m2 CLR
10:12 -8.8 °C -14.4 °C 1030 hPa NW 11.1 km/h 11.1 km/h 64% 0 mm 364.0 W/m2 CLR
10:17 -8.7 °C -14.3 °C 1030 hPa North 11.1 km/h 11.1 km/h 64% 0 mm 276.0 W/m2 CLR
10:19 -8.8 °C -14.6 °C 1030 hPa NNE 7.4 km/h 7.4 km/h 63% 0 mm 274.0 W/m2 CLR
10:22 -8.7 °C -14.4 °C 1030 hPa NNW 5.6 km/h 5.6 km/h 63% 0 mm 265.0 W/m2 CLR
10:24 -8.6 °C -14.4 °C 1030 hPa NNE 9.3 km/h 9.3 km/h 63% 0 mm 311.0 W/m2 CLR
10:30 -8.7 °C -14.7 °C 1030 hPa NE 9.3 km/h 9.3 km/h 62% 0 mm 401.0 W/m2 CLR
10:35 -8.5 °C -14.3 °C 1029.7 hPa NW 5.6 km/h 5.6 km/h 63% 0 mm 295.0 W/m2 CLR
10:36 -8.4 °C -14.2 °C 1030 hPa NW 13 km/h 13 km/h 63% 0 mm 230.0 W/m2 CLR
10:41 -8.2 °C -14.2 °C 1029.7 hPa NNW 9.7 km/h 9.7 km/h 62% 0 mm 308.0 W/m2 CLR
10:45 -8.1 °C -14.3 °C 1029.7 hPa NNE 7.4 km/h 7.4 km/h 61% 0 mm 257.0 W/m2 CLR
10:47 -8.1 °C -14.3 °C 1029.7 hPa NNE 6.4 km/h 6.4 km/h 61% 0 mm 223.0 W/m2 CLR
10:51 -7.9 °C -14.1 °C 1029.7 hPa North 5.6 km/h 5.6 km/h 61% 0 mm 223.0 W/m2 CLR
10:56 -7.7 °C -14.1 °C 1029.7 hPa WNW 9.3 km/h 9.3 km/h 60% 0 mm 320.0 W/m2 CLR
10:58 -7.6 °C -14.1 °C 1029.7 hPa WNW 5.6 km/h 5.6 km/h 60% 0 mm 341.0 W/m2 CLR
11:03 -7.5 °C -13.9 °C 1029.7 hPa NW 13 km/h 13 km/h 60% 0 mm 404.0 W/m2 CLR
11:05 -7.4 °C -14.1 °C 1029.7 hPa WNW 16.1 km/h 16.1 km/h 59% 0 mm 415.0 W/m2 CLR
11:10 -7.2 °C -14.1 °C 1029.7 hPa NNE 9.3 km/h 9.3 km/h 58% 0 mm 469.0 W/m2 CLR
11:15 -7.1 °C -13.9 °C 1029.7 hPa NW 9.7 km/h 9.7 km/h 58% 0 mm 473.0 W/m2 CLR
11:19 -6.9 °C -14.1 °C 1029.7 hPa NW 7.4 km/h 7.4 km/h 57% 0 mm 459.0 W/m2 CLR
11:20 -6.9 °C -14 °C 1029.3 hPa NW 7.4 km/h 7.4 km/h 57% 0 mm 476.0 W/m2 CLR
11:23 -6.8 °C -13.9 °C 1029.3 hPa NW 11.1 km/h 11.1 km/h 57% 0 mm 512.0 W/m2 CLR
11:28 -6.6 °C -13.9 °C 1029.3 hPa NNW 9.3 km/h 9.3 km/h 56% 0 mm 512.0 W/m2 CLR
11:29 -6.6 °C -13.9 °C 1029.3 hPa NNW 8 km/h 8 km/h 56% 0 mm 512.0 W/m2 CLR
11:34 -6.4 °C -13.8 °C 1029.3 hPa NNE 9.7 km/h 9.7 km/h 56% 0 mm 513.0 W/m2 CLR
11:35 -6.4 °C -13.7 °C 1029.3 hPa North 9.3 km/h 9.3 km/h 56% 0 mm 517.0 W/m2 CLR
11:41 -6.6 °C -13.9 °C 1029 hPa NNW 11.1 km/h 11.1 km/h 56% 0 mm 520.0 W/m2 CLR
11:46 -6.5 °C -14.1 °C 1029 hPa NW 13 km/h 13 km/h 55% 0 mm 526.0 W/m2 CLR
11:48 -6.3 °C -13.8 °C 1029 hPa NW 11.1 km/h 11.1 km/h 55% 0 mm 520.0 W/m2 CLR
11:53 -5.9 °C -14 °C 1029 hPa NNW 14.8 km/h 14.8 km/h 53% 0 mm 524.0 W/m2 CLR
11:58 -5.8 °C -14.1 °C 1028.7 hPa WNW 12.9 km/h 12.9 km/h 52% 0 mm 526.0 W/m2 CLR
12:03 -5.7 °C -14 °C 1028.7 hPa WNW 5.6 km/h 5.6 km/h 52% 0 mm 524.0 W/m2 CLR
12:04 -5.7 °C -13.8 °C 1028.7 hPa NNW 5.6 km/h 5.6 km/h 53% 0 mm 524.0 W/m2 CLR
12:10 -5.6 °C -14.2 °C 1028.3 hPa NNW 4.8 km/h 8 km/h 51% 0 mm 520.0 W/m2 CLR
12:15 -5.4 °C -14.2 °C 1028.7 hPa WNW 11.3 km/h 11.3 km/h 50% 0 mm 522.0 W/m2 CLR
12:20 -5.2 °C -14.1 °C 1028.7 hPa NNW 14.8 km/h 14.8 km/h 50% 0 mm 520.0 W/m2 CLR
12:21 -5.2 °C -14.1 °C 1028.7 hPa NW 7.4 km/h 7.4 km/h 50% 0 mm 522.0 W/m2 CLR
12:27 -5.2 °C -14.2 °C 1028.7 hPa WNW 5.6 km/h 5.6 km/h 49% 0 mm 519.0 W/m2 CLR
12:28 -5.1 °C -14.2 °C 1028.3 hPa NW 13 km/h 13 km/h 49% 0 mm 513.0 W/m2 CLR
12:33 -4.9 °C -14.3 °C 1028.7 hPa NW 9.7 km/h 9.7 km/h 48% 0 mm 512.0 W/m2 CLR
12:35 -5 °C -14.6 °C 1028.7 hPa NW 9.3 km/h 9.3 km/h 47% 0 mm 512.0 W/m2 CLR
12:40 -5.2 °C -14.5 °C 1028.3 hPa NNW 13 km/h 13 km/h 48% 0 mm 513.0 W/m2 CLR
12:45 -5.3 °C -14.7 °C 1028.3 hPa North 7.4 km/h 7.4 km/h 48% 0 mm 506.0 W/m2 CLR
12:49 -5.3 °C -14.7 °C 1028.3 hPa NE 14.8 km/h 14.8 km/h 48% 0 mm 504.0 W/m2 CLR
12:50 -5.4 °C -14.7 °C 1028.3 hPa North 5.6 km/h 5.6 km/h 48% 0 mm 499.0 W/m2 CLR
12:55 -5.3 °C -14.3 °C 1028.3 hPa NNE 9.3 km/h 9.3 km/h 49% 0 mm 494.0 W/m2 CLR
13:00 -5.2 °C -14.1 °C 1028.3 hPa NW 5.6 km/h 5.6 km/h 50% 0 mm 490.0 W/m2 CLR
13:06 -4.9 °C -14.1 °C 1028.3 hPa NNE 9.3 km/h 9.3 km/h 49% 0 mm 482.0 W/m2 CLR
13:11 -5.1 °C -14.2 °C 1028.3 hPa NW 5.6 km/h 5.6 km/h 49% 0 mm 480.0 W/m2 CLR
13:13 -5.1 °C -13.9 °C 1028.3 hPa WSW 9.3 km/h 9.3 km/h 50% 0 mm 478.0 W/m2 CLR
13:18 -5.1 °C -14.1 °C 1028.3 hPa NNE 5.6 km/h 5.6 km/h 49% 0 mm 471.0 W/m2 CLR
13:19 -5.1 °C -14.4 °C 1028.3 hPa NW 7.4 km/h 7.4 km/h 48% 0 mm 471.0 W/m2 CLR
13:25 -4.9 °C -14.4 °C 1028.3 hPa North 8 km/h 12.9 km/h 47% 0 mm 462.0 W/m2 CLR
13:26 -4.9 °C -14.5 °C 1028.3 hPa North 13 km/h 13 km/h 47% 0 mm 462.0 W/m2 CLR
13:31 -4.8 °C -14.1 °C 1028.3 hPa NNE 5.6 km/h 5.6 km/h 48% 0 mm 454.0 W/m2 CLR
13:34 -4.7 °C -14.3 °C 1028.3 hPa NW 7.4 km/h 7.4 km/h 47% 0 mm 448.0 W/m2 CLR
13:37 -4.6 °C -13.9 °C 1028.3 hPa WNW 11.1 km/h 11.1 km/h 48% 0 mm 441.0 W/m2 CLR
13:42 -4.5 °C -13.9 °C 1028.3 hPa West 9.3 km/h 9.3 km/h 48% 0 mm 436.0 W/m2 CLR
13:45 -4.3 °C -13.7 °C 1028.7 hPa NW 12.9 km/h 12.9 km/h 48% 0 mm 429.0 W/m2 CLR
13:47 -4.3 °C -14 °C 1028.7 hPa WNW 16.7 km/h 16.7 km/h 47% 0 mm 425.0 W/m2 CLR
13:52 -4.3 °C -14.2 °C 1028.7 hPa WNW 16.7 km/h 16.7 km/h 46% 0 mm 418.0 W/m2 CLR
13:53 -4.3 °C -14.2 °C 1028.7 hPa NW 11.3 km/h 11.3 km/h 46% 0 mm 418.0 W/m2 CLR
13:58 -4.3 °C -14.2 °C 1028.3 hPa NW 11.1 km/h 11.1 km/h 46% 0 mm 410.0 W/m2 CLR
14:03 -4.1 °C -14.1 °C 1028.7 hPa WNW 9.3 km/h 9.3 km/h 46% 0 mm 399.0 W/m2 CLR
14:08 -4.1 °C -14.3 °C 1028.7 hPa NW 7.4 km/h 7.4 km/h 45% 0 mm 388.0 W/m2 CLR
14:11 -4.2 °C -14.3 °C 1028.7 hPa NNE 13 km/h 13 km/h 45% 0 mm 383.0 W/m2 CLR
14:16 -4.4 °C -14.3 °C 1028.7 hPa WNW 11.1 km/h 11.1 km/h 46% 0 mm 374.0 W/m2 CLR
14:18 -4.4 °C -14.3 °C 1028.3 hPa NW 9.3 km/h 9.3 km/h 46% 0 mm 369.0 W/m2 CLR
14:23 -4.1 °C -14.1 °C 1028.3 hPa WNW 9.7 km/h 9.7 km/h 46% 0 mm 360.0 W/m2 CLR
14:28 -4.2 °C -14.6 °C 1028.7 hPa WNW 13 km/h 13 km/h 44% 0 mm 336.0 W/m2 CLR
14:30 -4.3 °C -14.7 °C 1028.7 hPa NW 13 km/h 13 km/h 44% 0 mm 327.0 W/m2 CLR
14:36 -4.4 °C -14.8 °C 1028.7 hPa WNW 14.8 km/h 14.8 km/h 44% 0 mm 304.0 W/m2 CLR
14:37 -4.3 °C -14.8 °C 1028.7 hPa NW 11.3 km/h 11.3 km/h 44% 0 mm 304.0 W/m2 CLR
14:38 -4.3 °C -14.8 °C 1028.7 hPa NNW 11.1 km/h 11.1 km/h 44% 0 mm 276.0 W/m2 CLR
14:43 -4.4 °C -14.6 °C 1028.3 hPa North 5.6 km/h 5.6 km/h 45% 0 mm 264.0 W/m2 CLR
14:44 -4.6 °C -14.7 °C 1028.3 hPa North 5.6 km/h 5.6 km/h 45% 0 mm 195.0 W/m2 CLR
14:49 -4.7 °C -14.8 °C 1028.3 hPa West 13 km/h 13 km/h 45% 0 mm 229.0 W/m2 CLR
14:51 -4.7 °C -14.9 °C 1028.3 hPa West 5.6 km/h 5.6 km/h 45% 0 mm 165.0 W/m2 CLR
14:56 -4.8 °C -14.9 °C 1028.3 hPa WNW 13 km/h 13 km/h 45% 0 mm 56.0 W/m2 CLR
15:02 -4.9 °C -15.3 °C 1028.7 hPa NW 7.4 km/h 7.4 km/h 44% 0 mm 79.0 W/m2 CLR
15:07 -5 °C -15.4 °C 1028.7 hPa West 11.1 km/h 11.1 km/h 44% 0 mm 54.0 W/m2 CLR
15:08 -5.1 °C -15.5 °C 1028.3 hPa West 9.3 km/h 9.3 km/h 44% 0 mm 79.0 W/m2 CLR
15:12 -5.1 °C -15.2 °C 1028.7 hPa NNE 5.6 km/h 5.6 km/h 45% 0 mm 156.0 W/m2 CLR
15:14 -5.1 °C -15.5 °C 1028.7 hPa NNE 3.7 km/h 3.7 km/h 44% 0 mm 109.0 W/m2 CLR
15:24 -4.9 °C -15.1 °C 1028.7 hPa NNE 7.4 km/h 7.4 km/h 45% 0 mm 151.0 W/m2 CLR
15:25 -4.9 °C -15.1 °C 1028.7 hPa NNE 9.3 km/h 9.3 km/h 45% 0 mm 155.0 W/m2 CLR
15:28 -4.9 °C -15 °C 1028.7 hPa NNE 5.6 km/h 5.6 km/h 45% 0 mm 116.0 W/m2 CLR
15:34 -4.9 °C -15 °C 1028.7 hPa NW 9.3 km/h 9.3 km/h 45% 0 mm 35.0 W/m2 CLR
15:35 -4.9 °C -15.1 °C 1028.7 hPa NW 5.6 km/h 5.6 km/h 45% 0 mm 35.0 W/m2 CLR
15:40 -5.1 °C -15.2 °C 1028.7 hPa North 5.6 km/h 5.6 km/h 45% 0 mm 58.0 W/m2 CLR
15:41 -5.1 °C -15.2 °C 1028.7 hPa NW 5.6 km/h 5.6 km/h 45% 0 mm 39.0 W/m2 CLR
15:43 -5.1 °C -15.2 °C 1028.7 hPa NW 6.4 km/h 6.4 km/h 45% 0 mm 39.0 W/m2 CLR
15:46 -5.1 °C -15.2 °C 1028.7 hPa WNW 11.1 km/h 11.1 km/h 45% 0 mm 56.0 W/m2 CLR
15:48 -5 °C -15.1 °C 1028.7 hPa WNW 7.4 km/h 7.4 km/h 45% 0 mm 100.0 W/m2 CLR
15:50 -5 °C -15.1 °C 1028.7 hPa NW 3.2 km/h 11.3 km/h 45% 0 mm 88.0 W/m2 CLR
15:51 -5 °C -15.1 °C 1028.3 hPa NW 5.6 km/h 5.6 km/h 45% 0 mm 58.0 W/m2 CLR
15:56 -5.2 °C -15.3 °C 1028.7 hPa NW 6.4 km/h 6.4 km/h 45% 0 mm 46.0 W/m2 CLR
16:03 -5.2 °C -15.6 °C 1028.7 hPa NW 7.4 km/h 7.4 km/h 44% 0 mm 42.0 W/m2 CLR
16:09 -5.2 °C -15.6 °C 1028.7 hPa NW 5.6 km/h 5.6 km/h 44% 0 mm 35.0 W/m2 CLR
16:11 -5.3 °C -15.4 °C 1028.7 hPa NW 7.4 km/h 7.4 km/h 45% 0 mm 32.0 W/m2 CLR
16:16 -5.2 °C -15.3 °C 1028.7 hPa NW 3.7 km/h 3.7 km/h 45% 0 mm 28.0 W/m2 CLR
16:17 -5.2 °C -15.3 °C 1028.7 hPa NW 5.6 km/h 5.6 km/h 45% 0 mm 28.0 W/m2 CLR
16:22 -5.3 °C -15.4 °C 1028.7 hPa NW 5.6 km/h 5.6 km/h 45% 0 mm 25.0 W/m2 CLR
16:24 -5.3 °C -15.4 °C 1028.7 hPa NW 5.6 km/h 5.6 km/h 45% 0 mm 23.0 W/m2 CLR
16:29 -5.4 °C -15.7 °C 1028.7 hPa NW 5.6 km/h 5.6 km/h 44% 0 mm 23.0 W/m2 CLR
16:34 -5.5 °C -15.6 °C 1028.7 hPa NW 1.9 km/h 1.9 km/h 45% 0 mm 19.0 W/m2 CLR
16:35 -5.5 °C -15.6 °C 1028.7 hPa NW 3.2 km/h 3.2 km/h 45% 0 mm 18.0 W/m2 CLR
16:37 -5.5 °C -15.6 °C 1028.7 hPa NW 5.6 km/h 5.6 km/h 45% 0 mm 16.0 W/m2 CLR
16:42 -5.7 °C -15.7 °C 1028.7 hPa NW 5.6 km/h 5.6 km/h 45% 0 mm 9.0 W/m2 CLR
16:44 -5.7 °C -15.7 °C 1028.7 hPa NW 5.6 km/h 5.6 km/h 45% 0 mm 11.0 W/m2 CLR
16:49 -5.8 °C -15.6 °C 1029 hPa NW 5.6 km/h 5.6 km/h 46% 0 mm 7.0 W/m2 CLR
16:51 -5.8 °C -15.6 °C 1029 hPa NW 5.6 km/h 5.6 km/h 46% 0 mm 5.0 W/m2 CLR
16:56 -5.9 °C -15.7 °C 1029 hPa NW 4.8 km/h 4.8 km/h 46% 0 mm 0.0 W/m2 CLR
16:57 -5.9 °C -15.7 °C 1029 hPa NW 5.6 km/h 5.6 km/h 46% 0 mm 0.0 W/m2 CLR
17:02 -6 °C -15.8 °C 1029 hPa NW 5.6 km/h 5.6 km/h 46% 0 mm 0.0 W/m2 CLR
17:03 -6 °C -15.5 °C 1029 hPa NW 5.6 km/h 5.6 km/h 47% 0 mm 0.0 W/m2 CLR
17:08 -6.1 °C -15.6 °C 1029 hPa NW 1.9 km/h   47% 0 mm 0.0 W/m2 CLR
17:09 -6.1 °C -15.6 °C 1029 hPa NW 1.9 km/h   47% 0 mm 0.0 W/m2 CLR
17:14 -6.2 °C -15.7 °C 1029 hPa NW 1.9 km/h 1.9 km/h 47% 0 mm 0.0 W/m2 CLR
17:19 -6.2 °C -15.7 °C 1029 hPa Calm     47% 0 mm 0.0 W/m2 CLR
17:22 -6.3 °C -15.5 °C 1029 hPa NW 3.2 km/h 3.2 km/h 48% 0 mm 0.0 W/m2 CLR
17:27 -6.3 °C -15.3 °C 1029 hPa Calm     49% 0 mm 0.0 W/m2 CLR
17:32 -6.4 °C -15.1 °C 1029 hPa Calm     50% 0 mm 0.0 W/m2 CLR
17:37 -6.5 °C -15.2 °C 1029 hPa Calm     50% 0 mm 0.0 W/m2 CLR
17:40 -6.6 °C -15.3 °C 1029 hPa NW 1.9 km/h   50% 0 mm 0.0 W/m2 CLR
17:44 -6.6 °C -15.3 °C 1029 hPa NW 1.6 km/h   50% 0 mm 0.0 W/m2 CLR
17:48 -6.7 °C -15.4 °C 1029.3 hPa NW 1.9 km/h 1.9 km/h 50% 0 mm 0.0 W/m2 CLR
17:53 -6.7 °C -15.2 °C 1029.3 hPa NW 1.9 km/h 1.9 km/h 51% 0 mm 0.0 W/m2 CLR
17:58 -6.8 °C -15.1 °C 1029.3 hPa NW 1.9 km/h 1.9 km/h 52% 0 mm 0.0 W/m2 CLR
18:04 -6.9 °C -15.1 °C 1029.3 hPa Calm     52% 0 mm 0.0 W/m2 CLR
18:06 -6.9 °C -15.2 °C 1029.3 hPa NW 1.9 km/h 1.9 km/h 52% 0 mm 0.0 W/m2 CLR
18:10 -7 °C -15.2 °C 1029.3 hPa Calm   3.2 km/h 52% 0 mm 0.0 W/m2 CLR
18:15 -7.1 °C -15.1 °C 1029.3 hPa NW 1.9 km/h 1.9 km/h 53% 0 mm 0.0 W/m2 CLR
18:17 -7.1 °C -15.1 °C 1029.3 hPa NW 1.9 km/h   53% 0 mm 0.0 W/m2 CLR
18:21 -7.2 °C -15.1 °C 1029.3 hPa Calm     53% 0 mm 0.0 W/m2 CLR
18:26 -7.2 °C -14.9 °C 1029.3 hPa Calm     54% 0 mm 0.0 W/m2 CLR
18:31 -7.2 °C -15.2 °C 1029.7 hPa Calm     53% 0 mm 0.0 W/m2 CLR
18:32 -7.3 °C -15.2 °C 1029.7 hPa Calm     53% 0 mm 0.0 W/m2 CLR
18:37 -7.3 °C -15.1 °C 1029.7 hPa Calm     54% 0 mm 0.0 W/m2 CLR
18:40 -7.4 °C -15.1 °C 1029.7 hPa Calm     54% 0 mm 0.0 W/m2 CLR
18:41 -7.4 °C -15.1 °C 1029.7 hPa Calm     54% 0 mm 0.0 W/m2 CLR
18:46 -7.4 °C -14.9 °C 1029.7 hPa Calm     55% 0 mm 0.0 W/m2 CLR
18:51 -7.4 °C -14.9 °C 1029.7 hPa Calm     55% 0 mm 0.0 W/m2 CLR
18:55 -7.5 °C -15 °C 1029.7 hPa Calm     55% 0 mm 0.0 W/m2 CLR
18:57 -7.6 °C -15.1 °C 1029.7 hPa NW 1.9 km/h   55% 0 mm 0.0 W/m2 CLR
19:02 -7.6 °C -15.1 °C 1029.7 hPa NW 1.6 km/h   55% 0 mm 0.0 W/m2 CLR
19:07 -7.7 °C -15.2 °C 1029.7 hPa Calm     55% 0 mm 0.0 W/m2 CLR
19:11 -7.7 °C -15 °C 1029.7 hPa Calm     56% 0 mm 0.0 W/m2 CLR
19:16 -7.8 °C -14.8 °C 1029.7 hPa Calm     57% 0 mm 0.0 W/m2 CLR
19:18 -7.8 °C -14.9 °C 1029.7 hPa NW 1.6 km/h 1.6 km/h 57% 0 mm 0.0 W/m2 CLR
19:23 -7.9 °C -14.7 °C 1030 hPa Calm     58% 0 mm 0.0 W/m2 CLR
19:28 -7.9 °C -14.8 °C 1030 hPa Calm   0.2 km/h 58% 0 mm 0.0 W/m2 CLR
19:33 -7.9 °C -14.6 °C 1030 hPa Calm     59% 0 mm 0.0 W/m2 CLR
19:35 -7.9 °C -14.6 °C 1029.7 hPa Calm     59% 0 mm 0.0 W/m2 CLR
19:40 -8 °C -14.8 °C 1030 hPa Calm     58% 0 mm 0.0 W/m2 CLR
19:45 -8.1 °C -14.9 °C 1030 hPa Calm     58% 0 mm 0.0 W/m2 CLR
19:47 -8.1 °C -14.7 °C 1030 hPa Calm     59% 0 mm 0.0 W/m2 CLR
19:52 -8.2 °C -14.6 °C 1030 hPa Calm     60% 0 mm 0.0 W/m2 CLR
19:54 -8.2 °C -14.6 °C 1030 hPa Calm     60% 0 mm 0.0 W/m2 CLR
19:59 -8.2 °C -14.6 °C 1030 hPa Calm     60% 0 mm 0.0 W/m2 CLR
20:04 -8.2 °C -14.8 °C 1030 hPa NW 1.9 km/h   59% 0 mm 0.0 W/m2 CLR
20:10 -8.3 °C -14.7 °C 1030 hPa Calm     60% 0 mm 0.0 W/m2 CLR
20:15 -8.4 °C -14.8 °C 1030 hPa Calm     60% 0 mm 0.0 W/m2 CLR
20:20 -8.4 °C -14.6 °C 1030 hPa NW 1.9 km/h   61% 0 mm 0.0 W/m2 CLR
20:23 -8.5 °C -14.7 °C 1030 hPa NW 1.6 km/h 1.6 km/h 61% 0 mm 0.0 W/m2 CLR
20:28 -8.6 °C -14.6 °C 1030.4 hPa Calm     62% 0 mm 0.0 W/m2 CLR
20:31 -8.6 °C -14.6 °C 1030 hPa NW 1.9 km/h   62% 0 mm 0.0 W/m2 CLR
20:36 -8.7 °C -14.7 °C 1030 hPa NW 1.9 km/h   62% 0 mm 0.0 W/m2 CLR
20:41 -8.7 °C -14.7 °C 1030 hPa Calm     62% 0 mm 0.0 W/m2 CLR
20:46 -8.7 °C -14.7 °C 1030 hPa Calm     62% 0 mm 0.0 W/m2 CLR
20:51 -8.7 °C -14.3 °C 1030 hPa Calm     64% 0 mm 0.0 W/m2 CLR
20:53 -8.8 °C -14.2 °C 1030 hPa Calm     65% 0 mm 0.0 W/m2 CLR
20:58 -8.8 °C -14.2 °C 1030 hPa Calm     65% 0 mm 0.0 W/m2 CLR
21:00 -8.8 °C -14.2 °C 1030 hPa Calm     65% 0 mm 0.0 W/m2 CLR
21:01 -8.8 °C -14 °C 1030 hPa Calm     66% 0 mm 0.0 W/m2 CLR
21:06 -8.8 °C -14.4 °C 1030.4 hPa Calm     64% 0 mm 0.0 W/m2 CLR
21:08 -8.9 °C -14.7 °C 1030 hPa Calm     63% 0 mm 0.0 W/m2 CLR
21:13 -8.9 °C -14.7 °C 1030 hPa Calm     63% 0 mm 0.0 W/m2 CLR
21:14 -8.9 °C -14.7 °C 1030 hPa Calm     63% 0 mm 0.0 W/m2 CLR
21:16 -8.9 °C -14.7 °C 1030 hPa Calm     63% 0 mm 0.0 W/m2 CLR
21:21 -9 °C -14.8 °C 1030 hPa Calm     63% 0 mm 0.0 W/m2 CLR
21:24 -9 °C -14.8 °C 1030 hPa Calm     63% 0 mm 0.0 W/m2 CLR
21:29 -9 °C -14.8 °C 1030 hPa Calm     63% 0 mm 0.0 W/m2 CLR
21:33 -9.1 °C -14.6 °C 1030 hPa Calm     64% 0 mm 0.0 W/m2 CLR
21:38 -9 °C -14.4 °C 1030 hPa Calm     65% 0 mm 0.0 W/m2 CLR
21:39 -9 °C -14.4 °C 1030 hPa Calm     65% 0 mm 0.0 W/m2 CLR
21:40 -9 °C -14.4 °C 1030 hPa Calm     65% 0 mm 0.0 W/m2 CLR
21:45 -9 °C -14.2 °C 1030 hPa Calm     66% 0 mm 0.0 W/m2 CLR
21:48 -9.1 °C -14.3 °C 1030.4 hPa Calm     66% 0 mm 0.0 W/m2 CLR
21:53 -9.1 °C -14.1 °C 1030.4 hPa Calm     67% 0 mm 0.0 W/m2 CLR
21:54 -9.1 °C -14.1 °C 1030.4 hPa Calm     67% 0 mm 0.0 W/m2 CLR
21:59 -9.1 °C -14.1 °C 1030.4 hPa Calm     67% 0 mm 0.0 W/m2 CLR
22:04 -9 °C -14 °C 1030.4 hPa Calm     67% 0 mm 0.0 W/m2 BKN
22:05 -9 °C -14 °C 1030.4 hPa Calm     67% 0 mm 0.0 W/m2 BKN
22:10 -8.9 °C -13.8 °C 1030.4 hPa NW 1.9 km/h   68% 0 mm 0.0 W/m2 BKN
22:13 -8.9 °C -13.8 °C 1030.4 hPa Calm     68% 0 mm 0.0 W/m2 BKN
22:18 -8.8 °C -13.7 °C 1030 hPa Calm     68% 0 mm 0.0 W/m2 BKN
22:20 -8.8 °C -13.7 °C 1030 hPa Calm     68% 0 mm 0.0 W/m2 BKN
22:23 -8.8 °C -13.8 °C 1030 hPa Calm     67% 0 mm 0.0 W/m2 BKN
22:27 -8.7 °C -13.7 °C 1030 hPa Calm     67% 0 mm 0.0 W/m2 BKN
22:32 -8.7 °C -13.9 °C 1030 hPa Calm     66% 0 mm 0.0 W/m2 BKN
22:33 -8.7 °C -13.9 °C 1030 hPa Calm     66% 0 mm 0.0 W/m2 BKN
22:35 -8.6 °C -13.8 °C 1030 hPa Calm     66% 0 mm 0.0 W/m2 BKN
22:40 -8.5 °C -12.8 °C 1030 hPa Calm     71% 0 mm 0.0 W/m2 BKN
22:45 -8.5 °C -12.3 °C 1030 hPa Calm     74% 0 mm 0.0 W/m2 BKN
22:46 -8.5 °C -12.2 °C 1030 hPa Calm     75% 0 mm 0.0 W/m2 BKN
22:51 -8.5 °C -12.2 °C 1030 hPa Calm     75% 0 mm 0.0 W/m2 BKN
22:54 -8.6 °C -12.2 °C 1030 hPa Calm     75% 0 mm 0.0 W/m2 BKN
22:59 -8.5 °C -12.2 °C 1030 hPa Calm     75% 0 mm 0.0 W/m2 BKN
23:00 -8.5 °C -12 °C 1030 hPa Calm     76% 0 mm 0.0 W/m2 BKN
23:05 -8.4 °C -12.3 °C 1030 hPa Calm     74% 0 mm 0.0 W/m2 OVC
23:08 -8.4 °C -12.3 °C 1030 hPa Calm     74% 0 mm 0.0 W/m2 OVC
23:11 -8.4 °C -12.1 °C 1030 hPa Calm     75% 0 mm 0.0 W/m2 OVC
23:16 -8.3 °C -11.8 °C 1030 hPa Calm     76% 0 mm 0.0 W/m2 OVC
23:19 -8.3 °C -11.8 °C 1029.7 hPa Calm     76% 0 mm 0.0 W/m2 OVC
23:24 -8.3 °C -11.8 °C 1029.7 hPa Calm     76% 0 mm 0.0 W/m2 OVC
23:25 -8.3 °C -11.8 °C 1029.7 hPa Calm     76% 0 mm 0.0 W/m2 OVC
23:30 -8.2 °C -11.7 °C 1030 hPa Calm     76% 0 mm 0.0 W/m2 OVC
23:35 -8.2 °C -11.7 °C 1030 hPa Calm     76% 0 mm 0.0 W/m2 OVC
23:40 -8.1 °C -12.1 °C 1030 hPa Calm     73% 0 mm 0.0 W/m2 OVC
23:45 -8.1 °C -12.9 °C 1029.7 hPa Calm     68% 0 mm 0.0 W/m2 OVC
23:49 -8 °C -13.1 °C 1029.7 hPa Calm     67% 0 mm 0.0 W/m2 OVC
23:50 -8 °C -13.1 °C 1029.7 hPa Calm     67% 0 mm 0.0 W/m2 OVC
23:55 -7.9 °C -13 °C 1030 hPa NW 1.9 km/h   67% 0 mm 0.0 W/m2 OVC
Bruceton, TN. NWS Weather Forecast
Compliments of:  Weather Underground - 6 mb

Interesting Weather Facts
EARTHQUAKE FACT
The largest earthquake in American history, the New Madrid Earthquake occurred in the winter of 1811-12 in northwestern Tennessee. Reelfoot Lake located in Obion and Lake Counties was formed as a result of this earthquake.